Time;durP1;ratioP1;P1;durP2;ratioP2;P2;SDS_P1;SDS_P2;PMS_P1;PMS_P2;Temp;Humidity;BMP_temperature;BMP_pressure;BME280_temperature;BME280_humidity;BME280_pressure;Samples;Min_cycle;Max_cycle;Signal;HPM_P1;HPM_P2
2023/04/05 00:00:53;;;;;;;5.73;5.23;;;;;;;-148.82;100.00;60434.72;4974870;28;20232;-66
2023/04/05 00:03:21;;;;;;;5.20;4.90;;;;;;;-148.82;100.00;60434.72;4916796;28;20217;-68
2023/04/05 00:05:53;;;;;;;4.77;4.37;;;;;;;-2.74;100.00;97528.50;4975917;28;20448;-65
2023/04/05 00:08:25;;;;;;;4.97;4.67;;;;;;;-2.96;100.00;97510.81;4952453;28;20241;-67
2023/04/05 00:10:53;;;;;;;5.37;4.87;;;;;;;-148.82;100.00;60434.72;4971960;28;20225;-67
2023/04/05 00:13:21;;;;;;;5.63;5.10;;;;;;;-148.82;100.00;60434.72;4973202;28;20204;-68
2023/04/05 00:15:49;;;;;;;5.53;5.10;;;;;;;-148.82;100.00;60434.72;4975131;28;20312;-66
2023/04/05 00:18:22;;;;;;;5.63;5.13;;;;;;;-3.00;100.00;97517.91;4938331;28;20205;-68
2023/04/05 00:20:52;;;;;;;5.33;4.83;;;;;;;-3.00;100.00;97519.69;4976510;28;20224;-67
2023/04/05 00:23:21;;;;;;;4.60;4.37;;;;;;;-3.01;100.00;97521.44;4950598;28;20221;-67
2023/04/05 00:25:49;;;;;;;5.17;4.77;;;;;;;-3.03;100.00;97523.28;4975777;28;20271;-68
2023/04/05 00:28:17;;;;;;;5.30;4.80;;;;;;;-3.06;100.00;97513.09;4971002;28;20201;-68
2023/04/05 00:30:44;;;;;;;5.03;4.57;;;;;;;-148.82;100.00;60434.72;4974395;28;20267;-67
2023/04/05 00:33:13;;;;;;;6.27;4.97;;;;;;;-3.14;100.00;97517.91;4978564;28;20211;-67
2023/04/05 00:35:40;;;;;;;5.37;4.87;;;;;;;-3.20;100.00;97512.16;4918941;28;20213;-66
2023/04/05 00:38:09;;;;;;;5.30;4.83;;;;;;;-3.25;100.00;97498.63;4971945;28;20205;-68
2023/04/05 00:40:37;;;;;;;5.63;5.20;;;;;;;-3.25;100.00;97503.78;4951060;28;20814;-67
2023/04/05 00:43:04;;;;;;;5.40;5.00;;;;;;;-3.29;100.00;97506.69;4974718;28;20237;-68
2023/04/05 00:45:32;;;;;;;5.07;4.63;;;;;;;-3.37;100.00;97502.78;4968594;28;20295;-66
2023/04/05 00:48:00;;;;;;;5.37;4.93;;;;;;;-3.44;100.00;97501.44;4975981;28;20209;-67
2023/04/05 00:50:29;;;;;;;4.73;4.33;;;;;;;-3.50;100.00;97494.88;4917794;28;20327;-67
2023/04/05 00:52:57;;;;;;;5.03;4.63;;;;;;;-3.53;100.00;97497.63;4966415;28;20635;-66
2023/04/05 00:55:27;;;;;;;6.83;5.20;;;;;;;-3.52;100.00;97496.72;4950848;28;20205;-68
2023/04/05 00:57:55;;;;;;;5.13;4.67;;;;;;;-3.49;100.00;97490.50;4975042;28;20773;-67
2023/04/05 01:00:23;;;;;;;6.90;6.20;;;;;;;-3.52;100.00;97488.94;4974027;28;20235;-67
2023/04/05 01:02:52;;;;;;;5.10;4.70;;;;;;;-3.54;100.00;97488.19;4975035;28;20371;-66
2023/04/05 01:05:33;;;;;;;5.23;4.83;;;;;;;-3.48;100.00;97492.19;4930384;28;20236;-68
2023/04/05 01:08:13;;;;;;;6.00;5.07;;;;;;;-3.59;100.00;97474.69;4971807;28;20212;-66
2023/04/05 01:10:44;;;;;;;5.40;4.93;;;;;;;-3.49;100.00;97488.78;4950681;28;21576;-66
2023/04/05 01:13:12;;;;;;;5.27;4.77;;;;;;;-3.48;100.00;97481.81;4973817;28;20934;-68
2023/04/05 01:15:41;;;;;;;5.50;5.10;;;;;;;-148.82;100.00;60434.72;4973704;28;20228;-67
2023/04/05 01:18:10;;;;;;;5.07;4.60;;;;;;;-3.55;100.00;97475.31;4975020;28;20235;-70
2023/04/05 01:20:43;;;;;;;5.37;4.87;;;;;;;-3.55;100.00;97476.16;4900910;28;22674;-69
2023/04/05 01:23:32;;;;;;;5.57;5.07;;;;;;;-3.60;100.00;97472.16;4965143;28;20683;-70
2023/04/05 01:26:25;;;;;;;5.03;4.67;;;;;;;-3.81;100.00;97437.06;4972507;28;20599;-69
2023/04/05 01:28:59;;;;;;;5.97;5.47;;;;;;;-3.66;100.00;97463.84;4970601;28;20208;-69
2023/04/05 01:31:32;;;;;;;5.53;5.13;;;;;;;-3.76;100.00;97467.88;4966565;28;20585;-69
2023/04/05 01:34:06;;;;;;;5.00;4.70;;;;;;;-3.79;100.00;97460.25;4971991;28;20301;-69
2023/04/05 01:36:40;;;;;;;5.17;4.80;;;;;;;-3.85;100.00;97463.19;4912565;28;20218;-69
2023/04/05 01:39:09;;;;;;;5.37;4.97;;;;;;;-3.79;100.00;97468.03;4950820;28;20434;-67
2023/04/05 01:41:38;;;;;;;6.53;5.80;;;;;;;-3.83;100.00;97459.63;4974510;28;20530;-67
2023/04/05 01:44:06;;;;;;;6.33;5.83;;;;;;;-148.82;100.00;60434.72;4961233;28;20621;-67
2023/04/05 01:46:35;;;;;;;6.33;5.73;;;;;;;-148.82;100.00;60434.72;4973677;28;20219;-67
2023/04/05 01:49:03;;;;;;;6.03;5.43;;;;;;;-3.90;100.00;97450.53;4970076;28;20434;-69
2023/04/05 01:51:30;;;;;;;6.40;5.80;;;;;;;-3.86;100.00;97462.38;4908805;28;20244;-67
2023/04/05 01:53:59;;;;;;;6.23;5.73;;;;;;;-3.85;100.00;97458.03;4972194;28;20300;-68
2023/04/05 01:56:27;;;;;;;5.90;5.50;;;;;;;-3.88;100.00;97459.03;4974423;28;20220;-68
2023/04/05 01:58:54;;;;;;;5.33;4.93;;;;;;;-3.84;100.00;97457.09;4948583;28;20212;-69
2023/04/05 02:01:22;;;;;;;5.83;5.33;;;;;;;-3.89;100.00;97464.28;4972570;28;20438;-68
2023/04/05 02:03:51;;;;;;;6.07;5.50;;;;;;;-3.99;100.00;97453.63;4975242;28;20302;-69
2023/04/05 02:06:19;;;;;;;5.70;5.40;;;;;;;-3.98;100.00;97460.47;4918911;28;20831;-68
2023/04/05 02:08:46;;;;;;;6.30;5.77;;;;;;;-3.95;100.00;97457.72;4973134;28;20236;-68
2023/04/05 02:11:14;;;;;;;6.07;5.47;;;;;;;-4.08;100.00;97440.28;4972953;28;20311;-68
2023/04/05 02:13:41;;;;;;;5.27;4.93;;;;;;;-3.99;100.00;97457.06;4947996;28;20228;-68
2023/04/05 02:16:09;;;;;;;6.03;5.53;;;;;;;-4.05;100.00;97460.00;4970476;28;20694;-68
2023/04/05 02:18:37;;;;;;;6.20;5.60;;;;;;;-4.04;100.00;97453.03;4970393;28;20216;-66
2023/04/05 02:21:09;;;;;;;5.93;5.43;;;;;;;-4.14;100.00;97453.56;4907969;28;21044;-68
2023/04/05 02:23:37;;;;;;;6.07;5.47;;;;;;;-4.17;100.00;97455.47;4972744;28;20411;-68
2023/04/05 02:26:05;;;;;;;5.97;5.37;;;;;;;-4.24;100.00;97445.47;4970767;28;20440;-68
2023/04/05 02:28:33;;;;;;;5.97;5.47;;;;;;;-4.26;100.00;97443.91;4951191;28;20646;-68
2023/04/05 02:31:00;;;;;;;5.80;5.40;;;;;;;-4.29;100.00;97447.47;4971062;28;20229;-68
2023/04/05 02:33:28;;;;;;;5.70;5.30;;;;;;;-4.39;100.00;97448.91;4968115;28;20225;-68
2023/04/05 02:35:56;;;;;;;6.57;5.33;;;;;;;-148.82;100.00;60434.72;4967551;28;20331;-68
2023/04/05 02:38:25;;;;;;;5.53;5.10;;;;;;;-4.55;100.00;97454.09;4919920;28;20549;-67
2023/04/05 02:40:54;;;;;;;4.90;4.57;;;;;;;-4.56;100.00;97449.81;4965173;28;20316;-69
2023/04/05 02:43:21;;;;;;;5.93;5.47;;;;;;;-4.56;100.00;97447.25;4969026;28;20208;-67
2023/04/05 02:45:49;;;;;;;6.23;5.70;;;;;;;-148.82;100.00;60434.72;4969753;28;20225;-69
2023/04/05 02:48:17;;;;;;;6.33;5.83;;;;;;;-148.82;100.00;60434.72;4978738;28;20201;-68
2023/04/05 02:50:47;;;;;;;5.97;5.43;;;;;;;-4.77;100.00;97451.81;4973269;28;20229;-69
2023/04/05 02:53:15;;;;;;;7.87;5.57;;;;;;;-4.79;100.00;97449.28;4922933;28;20600;-67
2023/04/05 02:55:44;;;;;;;6.40;5.90;;;;;;;-4.81;100.00;97448.53;4976431;28;20235;-69
2023/04/05 02:58:13;;;;;;;5.97;5.47;;;;;;;-4.86;100.00;97447.94;4970839;28;20280;-69
2023/04/05 03:00:40;;;;;;;5.90;5.30;;;;;;;-148.82;100.00;60434.72;4949087;28;20685;-67
2023/04/05 03:03:09;;;;;;;6.33;5.77;;;;;;;-4.83;100.00;97451.22;4976754;28;20205;-66
2023/04/05 03:05:37;;;;;;;5.60;5.20;;;;;;;-4.86;100.00;97448.81;4975496;28;20241;-68
2023/04/05 03:08:05;;;;;;;5.77;5.23;;;;;;;-4.84;100.00;97446.13;4920578;28;20898;-69
2023/04/05 03:10:34;;;;;;;7.07;6.03;;;;;;;-4.87;100.00;97443.69;4977330;28;20725;-67
2023/04/05 03:13:04;;;;;;;6.47;5.90;;;;;;;-4.96;100.00;97440.69;4973726;28;20748;-68
2023/04/05 03:15:32;;;;;;;5.70;5.20;;;;;;;-4.92;100.00;97440.53;4955104;28;20225;-67
2023/04/05 03:18:00;;;;;;;6.53;6.03;;;;;;;-5.04;100.00;97437.69;4974805;28;20996;-68
2023/04/05 03:20:27;;;;;;;6.23;5.73;;;;;;;-5.04;100.00;97434.25;4978415;28;20264;-68
2023/04/05 03:22:55;;;;;;;7.07;6.30;;;;;;;-148.82;100.00;60434.72;4966687;28;20204;-68
2023/04/05 03:25:24;;;;;;;6.50;5.90;;;;;;;-5.13;100.00;97441.56;4925983;28;20966;-68
2023/04/05 03:27:52;;;;;;;5.93;5.50;;;;;;;-5.15;100.00;97439.97;4972071;28;20217;-68
2023/04/05 03:30:22;;;;;;;6.10;5.67;;;;;;;-5.14;100.00;97444.22;4975040;28;20235;-68
2023/04/05 03:32:49;;;;;;;6.63;6.03;;;;;;;-5.12;100.00;97445.81;4950233;28;20209;-69
2023/04/05 03:35:18;;;;;;;7.10;6.47;;;;;;;-5.16;100.00;97443.47;4978392;28;20228;-67
2023/04/05 03:37:45;;;;;;;6.80;6.33;;;;;;;-148.82;100.00;60434.72;4965921;28;20689;-69
2023/04/05 03:40:13;;;;;;;6.13;5.67;;;;;;;-148.82;100.00;60434.72;4925728;28;21424;-68
2023/04/05 03:42:43;;;;;;;6.43;5.83;;;;;;;-148.82;100.00;60434.72;4970950;28;20643;-68
2023/04/05 03:45:11;;;;;;;7.07;6.43;;;;;;;-148.82;100.00;60434.72;4977127;28;20260;-68
2023/04/05 03:47:40;;;;;;;7.07;6.40;;;;;;;-148.82;100.00;60434.72;4972343;28;20205;-67
2023/04/05 03:50:08;;;;;;;8.30;6.03;;;;;;;-148.82;100.00;60434.72;4974989;28;20788;-67
2023/04/05 03:52:36;;;;;;;9.10;7.67;;;;;;;-148.82;100.00;60434.72;4972352;28;20679;-68
2023/04/05 03:55:04;;;;;;;7.70;7.00;;;;;;;-148.82;100.00;60434.72;4977796;28;20950;-68
2023/04/05 03:57:32;;;;;;;7.87;6.80;;;;;;;-148.82;100.00;60434.72;4908003;28;20442;-68
2023/04/05 03:59:59;;;;;;;7.20;6.60;;;;;;;-148.82;100.00;60434.72;4976481;28;20220;-67
2023/04/05 04:02:27;;;;;;;6.77;6.23;;;;;;;-148.82;100.00;60434.72;4951691;28;20213;-68
2023/04/05 04:04:56;;;;;;;6.90;6.30;;;;;;;-148.82;100.00;60434.72;4973192;28;20657;-67
2023/04/05 04:07:25;;;;;;;7.03;6.47;;;;;;;-148.82;100.00;60434.72;4970349;28;20308;-68
2023/04/05 04:09:54;;;;;;;7.20;6.57;;;;;;;-148.82;100.00;60434.72;4974190;28;20212;-67
2023/04/05 04:12:21;;;;;;;6.63;6.13;;;;;;;-148.82;100.00;60434.72;4922615;28;20213;-68
2023/04/05 04:14:49;;;;;;;7.47;6.77;;;;;;;-148.82;100.00;60434.72;4974840;28;20205;-69
2023/04/05 04:17:26;;;;;;;6.97;6.47;;;;;;;-148.82;100.00;60434.72;4968154;28;20205;-69
2023/04/05 04:19:56;;;;;;;6.97;6.37;;;;;;;-148.82;100.00;60434.72;4973779;28;20204;-68
2023/04/05 04:22:25;;;;;;;7.67;6.80;;;;;;;-148.82;100.00;60434.72;4975707;28;20241;-68
2023/04/05 04:24:53;;;;;;;7.33;6.73;;;;;;;-148.82;100.00;60434.72;4975441;28;20220;-68
2023/04/05 04:27:21;;;;;;;7.20;6.60;;;;;;;-148.82;100.00;60434.72;4906354;28;20209;-69
2023/04/05 04:29:49;;;;;;;7.43;6.43;;;;;;;-148.82;100.00;60434.72;4972291;28;20232;-68
2023/04/05 04:32:25;;;;;;;8.63;7.07;;;;;;;-148.82;100.00;60434.72;4962615;28;20215;-69
2023/04/05 04:34:54;;;;;;;8.47;7.73;;;;;;;-148.82;100.00;60434.72;4974304;28;21456;-68
2023/04/05 04:37:29;;;;;;;8.83;7.87;;;;;;;-148.82;100.00;60434.72;4970505;28;20211;-68
2023/04/05 04:40:05;;;;;;;11.97;8.30;;;;;;;-148.82;100.00;60434.72;4972928;28;20691;-68
2023/04/05 04:42:37;;;;;;;7.97;7.10;;;;;;;-148.82;100.00;60434.72;4932657;28;21993;-67
2023/04/05 04:45:06;;;;;;;7.83;7.13;;;;;;;-148.82;100.00;60434.72;4978685;28;20304;-67
2023/04/05 04:47:33;;;;;;;8.07;7.43;;;;;;;-148.82;100.00;60434.72;4972085;28;20205;-67
2023/04/05 04:50:02;;;;;;;7.77;6.97;;;;;;;-148.82;100.00;60434.72;4955522;28;20332;-67
2023/04/05 04:52:31;;;;;;;7.80;7.20;;;;;;;-148.82;100.00;60434.72;4970235;28;20212;-68
2023/04/05 04:54:58;;;;;;;7.33;6.60;;;;;;;-148.82;100.00;60434.72;4977445;28;20209;-67
2023/04/05 04:57:26;;;;;;;7.80;7.20;;;;;;;-148.82;100.00;60434.72;4970832;28;20797;-68
2023/04/05 04:59:54;;;;;;;7.93;7.27;;;;;;;-148.82;100.00;60434.72;4934564;28;20299;-68
2023/04/05 05:02:23;;;;;;;7.63;6.87;;;;;;;-148.82;100.00;60434.72;4973901;28;20708;-69
2023/04/05 05:04:51;;;;;;;6.67;6.17;;;;;;;-148.82;100.00;60434.72;4950735;28;20324;-68
2023/04/05 05:07:18;;;;;;;7.53;7.00;;;;;;;-148.82;100.00;60434.72;4967982;28;20213;-68
2023/04/05 05:09:51;;;;;;;8.97;8.17;;;;;;;-148.82;100.00;60434.72;4973727;28;20215;-70
2023/04/05 05:12:19;;;;;;;9.10;7.03;;;;;;;-148.82;100.00;60434.72;4973515;28;20660;-69
2023/04/05 05:14:47;;;;;;;8.13;7.40;;;;;;;-148.82;100.00;60434.72;4922240;28;20456;-70
2023/04/05 05:17:15;;;;;;;9.80;7.30;;;;;;;-148.82;100.00;60434.72;4973665;28;20201;-68
2023/04/05 05:19:42;;;;;;;7.50;6.80;;;;;;;-148.82;100.00;60434.72;4950192;28;20682;-68
2023/04/05 05:22:10;;;;;;;6.53;5.97;;;;;;;-148.82;100.00;60434.72;4975189;28;20209;-70
2023/04/05 05:24:37;;;;;;;6.90;6.30;;;;;;;-148.82;100.00;60434.72;4973769;28;20418;-68
2023/04/05 05:27:06;;;;;;;6.97;6.37;;;;;;;-148.82;100.00;60434.72;4976211;28;20716;-68
2023/04/05 05:29:34;;;;;;;7.10;6.33;;;;;;;-148.82;100.00;60434.72;4971120;28;20233;-68
2023/04/05 05:32:02;;;;;;;7.30;6.60;;;;;;;-148.82;100.00;60434.72;4919593;28;20244;-68
2023/04/05 05:34:29;;;;;;;7.57;6.60;;;;;;;-148.82;100.00;60434.72;4945664;28;22088;-68
2023/04/05 05:36:57;;;;;;;6.60;6.00;;;;;;;-148.82;100.00;60434.72;4966480;28;20447;-68
2023/04/05 05:39:25;;;;;;;7.13;6.53;;;;;;;-148.82;100.00;60434.72;4972026;28;20216;-69
2023/04/05 05:41:52;;;;;;;9.03;7.40;;;;;;;-148.82;100.00;60434.72;4974280;28;20724;-67
2023/04/05 05:44:21;;;;;;;6.97;6.37;;;;;;;-3.94;100.00;97433.50;4971425;28;20209;-69
2023/04/05 05:46:49;;;;;;;6.97;6.47;;;;;;;-3.74;100.00;97444.47;4921035;28;20725;-67
2023/04/05 05:49:17;;;;;;;8.57;6.73;;;;;;;-3.65;100.00;97444.78;4975618;28;20260;-69
2023/04/05 05:51:44;;;;;;;6.70;6.20;;;;;;;-3.68;100.00;97449.28;4950676;28;20427;-68
2023/04/05 05:54:12;;;;;;;8.50;6.57;;;;;;;-3.64;100.00;97450.78;4975019;28;20557;-69
2023/04/05 05:56:40;;;;;;;7.50;6.90;;;;;;;-3.58;100.00;97453.03;4973202;28;20472;-69
2023/04/05 05:59:08;;;;;;;7.10;6.20;;;;;;;-3.52;100.00;97455.28;4975729;28;20758;-69
2023/04/05 06:01:37;;;;;;;7.70;7.07;;;;;;;-3.41;100.00;97456.38;4919744;28;20890;-68
2023/04/05 06:04:04;;;;;;;7.23;6.57;;;;;;;-3.31;100.00;97452.31;4976077;28;20538;-68
2023/04/05 06:06:34;;;;;;;7.53;6.93;;;;;;;-3.22;100.00;97448.38;4957875;28;20385;-68
2023/04/05 06:09:04;;;;;;;6.90;6.30;;;;;;;-3.15;100.00;97452.25;4975250;28;20412;-67
2023/04/05 06:11:31;;;;;;;7.80;6.67;;;;;;;-3.10;100.00;97452.81;4966062;28;20252;-66
2023/04/05 06:14:00;;;;;;;6.93;6.33;;;;;;;-2.90;100.00;97455.97;4973422;28;20224;-68
2023/04/05 06:16:29;;;;;;;8.07;6.97;;;;;;;-2.82;100.00;97458.13;4966496;28;20569;-66
2023/04/05 06:18:58;;;;;;;6.43;5.90;;;;;;;-2.76;100.00;97460.34;4927942;28;20320;-67
2023/04/05 06:21:26;;;;;;;6.77;5.77;;;;;;;-2.70;100.00;97465.16;4969871;28;20228;-68
2023/04/05 06:23:54;;;;;;;6.40;5.80;;;;;;;-2.57;100.00;97460.03;4955579;28;20216;-67
2023/04/05 06:26:25;;;;;;;7.13;6.53;;;;;;;-2.40;100.00;97463.34;4976413;28;20656;-68
2023/04/05 06:28:54;;;;;;;6.97;6.23;;;;;;;-2.44;100.00;97452.34;4971683;28;20324;-67
2023/04/05 06:31:26;;;;;;;5.87;5.23;;;;;;;-2.29;100.00;97452.28;4969872;28;20228;-68
2023/04/05 06:33:54;;;;;;;8.67;7.17;;;;;;;-2.19;100.00;97442.97;4922631;28;20219;-67
2023/04/05 06:36:23;;;;;;;6.80;6.30;;;;;;;-2.02;100.00;97454.88;4971378;28;20197;-68
2023/04/05 06:38:53;;;;;;;6.93;6.23;;;;;;;-1.90;100.00;97463.66;4951324;28;20610;-67
2023/04/05 06:41:21;;;;;;;8.97;6.47;;;;;;;-1.81;100.00;97465.66;4974073;28;20691;-67
2023/04/05 06:43:48;;;;;;;6.80;6.30;;;;;;;-1.67;100.00;97467.34;4971646;28;20211;-66
2023/04/05 06:46:16;;;;;;;9.80;8.63;;;;;;;-1.59;100.00;97464.28;4973462;28;20232;-68
2023/04/05 06:48:46;;;;;;;7.40;6.70;;;;;;;-1.46;100.00;97459.91;4971803;28;20299;-66
2023/04/05 06:51:14;;;;;;;6.77;6.17;;;;;;;-1.22;100.00;97460.97;4920482;28;20236;-67
2023/04/05 06:53:43;;;;;;;6.23;5.70;;;;;;;-1.11;100.00;97457.66;4950002;28;20343;-67
2023/04/05 06:56:11;;;;;;;5.57;5.03;;;;;;;-1.00;100.00;97467.34;4972148;28;20239;-67
2023/04/05 06:58:39;;;;;;;5.50;4.97;;;;;;;-1.12;100.00;97469.00;4970953;28;20843;-66
2023/04/05 07:01:07;;;;;;;5.87;5.33;;;;;;;-1.18;100.00;97468.47;4971936;28;20316;-68
2023/04/05 07:03:35;;;;;;;6.33;5.33;;;;;;;-0.86;100.00;97466.41;4969849;28;20197;-67
2023/04/05 07:06:03;;;;;;;9.60;6.97;;;;;;;-0.79;100.00;97459.84;4922145;28;20220;-67
2023/04/05 07:08:32;;;;;;;6.50;6.00;;;;;;;-0.56;100.00;97457.44;4947873;28;20661;-67
2023/04/05 07:11:00;;;;;;;6.13;5.20;;;;;;;-0.67;100.00;97465.97;4972663;28;20723;-67
2023/04/05 07:13:28;;;;;;;6.03;5.53;;;;;;;-0.32;100.00;97460.88;4969002;28;20963;-67
2023/04/05 07:16:00;;;;;;;6.43;5.80;;;;;;;-0.19;100.00;97460.84;4965519;28;20205;-66
2023/04/05 07:18:28;;;;;;;6.53;5.50;;;;;;;0.03;100.00;97453.28;4971094;28;20365;-66
2023/04/05 07:21:00;;;;;;;6.93;5.73;;;;;;;0.16;100.00;97446.22;4919490;28;20225;-66
2023/04/05 07:23:28;;;;;;;5.80;5.40;;;;;;;0.23;99.46;97450.06;4947988;28;20626;-67
2023/04/05 07:26:03;;;;;;;5.83;5.33;;;;;;;0.18;97.41;97457.34;4973241;28;20376;-67
2023/04/05 07:28:31;;;;;;;5.90;5.33;;;;;;;0.40;96.92;97453.19;4975549;28;20319;-67
2023/04/05 07:30:59;;;;;;;5.50;5.00;;;;;;;0.72;94.65;97449.97;4974813;28;20263;-66
2023/04/05 07:33:27;;;;;;;5.80;5.30;;;;;;;0.56;93.66;97447.66;4972681;28;20577;-67
2023/04/05 07:35:55;;;;;;;5.47;5.03;;;;;;;0.56;93.43;97438.06;4925276;28;20221;-67
2023/04/05 07:38:23;;;;;;;7.00;5.87;;;;;;;0.56;94.91;97438.06;4972425;28;20233;-68
2023/04/05 07:40:51;;;;;;;7.10;6.20;;;;;;;0.84;94.61;97443.00;4955266;28;20712;-66
2023/04/05 07:43:20;;;;;;;5.63;5.13;;;;;;;0.97;91.93;97438.50;4978359;28;20576;-67
2023/04/05 07:45:48;;;;;;;6.00;4.77;;;;;;;0.94;91.04;97443.09;4977827;28;20311;-67
2023/04/05 07:48:15;;;;;;;5.53;5.07;;;;;;;1.14;92.18;97439.00;4974965;28;20218;-67
2023/04/05 07:50:46;;;;;;;6.60;4.97;;;;;;;1.29;89.21;97436.97;4974277;28;20350;-66
2023/04/05 07:53:14;;;;;;;8.80;5.97;;;;;;;1.38;87.65;97432.81;4927058;28;20810;-67
2023/04/05 07:55:43;;;;;;;6.97;5.33;;;;;;;1.61;85.78;97446.66;4955153;28;20212;-67
2023/04/05 07:58:10;;;;;;;5.67;5.20;;;;;;;1.62;86.29;97443.09;4974618;28;20248;-67
2023/04/05 08:00:39;;;;;;;5.87;5.37;;;;;;;1.81;87.58;97431.22;4974947;28;20756;-66
2023/04/05 08:03:07;;;;;;;6.10;5.47;;;;;;;1.96;84.42;97429.16;4974530;28;20205;-67
2023/04/05 08:05:35;;;;;;;5.73;4.80;;;;;;;1.97;81.58;97431.63;4974381;28;20209;-66
2023/04/05 08:08:03;;;;;;;4.63;4.27;;;;;;;2.07;77.14;97441.34;4919161;28;20253;-67
2023/04/05 08:10:30;;;;;;;5.37;4.77;;;;;;;2.15;74.56;97420.66;4953910;28;21066;-66
2023/04/05 08:12:58;;;;;;;5.67;5.07;;;;;;;2.57;75.33;97438.16;4972591;28;20669;-67
2023/04/05 08:15:26;;;;;;;5.50;5.00;;;;;;;2.62;74.55;97441.22;4973477;28;20679;-67
2023/04/05 08:17:55;;;;;;;5.20;4.70;;;;;;;2.58;71.49;97438.03;4974132;28;20704;-66
2023/04/05 08:20:22;;;;;;;4.23;3.93;;;;;;;2.72;69.94;97444.75;4974486;28;20247;-68
2023/04/05 08:22:50;;;;;;;2.70;2.50;;;;;;;2.65;62.82;97446.22;4918459;28;20221;-67
2023/04/05 08:25:18;;;;;;;3.10;2.90;;;;;;;2.82;61.05;97430.88;4962903;28;20898;-68
2023/04/05 08:27:45;;;;;;;2.50;2.30;;;;;;;2.49;57.21;97427.50;4966457;28;20347;-67
2023/04/05 08:30:13;;;;;;;2.47;2.30;;;;;;;2.17;56.45;97426.59;4976133;28;20449;-68
2023/04/05 08:32:41;;;;;;;2.60;2.30;;;;;;;2.37;56.57;97429.34;4971047;28;20213;-66
2023/04/05 08:35:10;;;;;;;2.73;2.53;;;;;;;2.60;56.26;97430.91;4972328;28;20205;-68
2023/04/05 08:37:38;;;;;;;2.77;2.57;;;;;;;2.56;55.92;97426.03;4972633;28;20417;-67
2023/04/05 08:40:08;;;;;;;3.20;3.00;;;;;;;2.36;55.40;97430.28;4916894;28;20240;-67
2023/04/05 08:42:37;;;;;;;4.70;4.07;;;;;;;2.31;54.96;97422.84;4951381;28;20304;-67
2023/04/05 08:45:09;;;;;;;4.00;3.30;;;;;;;2.64;57.01;97428.84;4972320;28;20212;-67
2023/04/05 08:47:37;;;;;;;3.07;2.93;;;;;;;2.36;54.73;97425.91;4971434;28;20667;-67
2023/04/05 08:50:06;;;;;;;3.10;2.90;;;;;;;2.40;56.14;97422.09;4974999;28;21274;-66
2023/04/05 08:52:36;;;;;;;2.77;2.60;;;;;;;2.48;53.87;97416.22;4969888;28;20209;-67
2023/04/05 08:55:05;;;;;;;3.30;3.00;;;;;;;2.64;54.54;97423.59;4922893;28;20641;-68
2023/04/05 08:57:34;;;;;;;4.10;3.60;;;;;;;2.84;56.09;97408.03;4963310;28;20248;-67
2023/04/05 09:00:03;;;;;;;3.47;3.27;;;;;;;3.09;57.13;97411.19;4973241;28;20608;-67
2023/04/05 09:02:32;;;;;;;3.73;3.43;;;;;;;3.07;55.84;97408.69;4967803;28;20255;-66
2023/04/05 09:05:00;;;;;;;4.90;3.87;;;;;;;3.02;56.64;97413.50;4970528;28;20210;-67
2023/04/05 09:07:30;;;;;;;3.83;3.60;;;;;;;3.01;55.39;97398.75;4967545;28;20387;-68
2023/04/05 09:10:00;;;;;;;4.27;3.87;;;;;;;3.33;54.64;97397.78;4922821;28;20384;-67
2023/04/05 09:12:28;;;;;;;3.70;3.50;;;;;;;3.03;53.18;97416.00;4948207;28;20764;-67
2023/04/05 09:14:55;;;;;;;5.00;3.53;;;;;;;2.88;54.80;97412.91;4974302;28;20208;-67
2023/04/05 09:17:23;;;;;;;3.20;3.00;;;;;;;3.25;54.69;97398.44;4973542;28;20205;-68
2023/04/05 09:19:51;;;;;;;3.93;3.50;;;;;;;3.10;54.56;97410.25;4969904;28;20550;-66
2023/04/05 09:22:19;;;;;;;3.60;3.30;;;;;;;3.23;53.97;97399.53;4971508;28;20384;-68
2023/04/05 09:24:47;;;;;;;3.20;3.00;;;;;;;3.65;52.18;97386.28;4922735;28;20801;-67
2023/04/05 09:27:17;;;;;;;3.33;2.97;;;;;;;4.14;52.94;97395.97;4965259;28;20216;-68
2023/04/05 09:29:47;;;;;;;4.20;3.90;;;;;;;4.17;52.38;97403.56;4967261;28;20693;-67
2023/04/05 09:32:17;;;;;;;3.70;3.40;;;;;;;4.31;51.14;97395.28;4969097;28;20655;-67
2023/04/05 09:34:45;;;;;;;6.10;5.50;;;;;;;4.28;50.95;97398.19;4967281;28;20591;-68
2023/04/05 09:37:14;;;;;;;4.37;3.20;;;;;;;4.02;52.27;97393.50;4969257;28;21141;-69
2023/04/05 09:39:42;;;;;;;4.87;3.30;;;;;;;3.25;50.58;97395.00;4970077;28;20545;-67
2023/04/05 09:42:11;;;;;;;4.13;3.20;;;;;;;3.57;52.07;97394.81;4922577;28;20201;-68
2023/04/05 09:44:53;;;;;;;5.47;3.40;;;;;;;3.68;52.20;97400.88;4951033;28;20228;-67
2023/04/05 09:47:22;;;;;;;3.20;3.00;;;;;;;3.75;51.56;97371.41;4971713;28;20613;-68
2023/04/05 09:49:49;;;;;;;3.80;3.50;;;;;;;3.60;49.97;97372.75;4976194;28;20586;-67
2023/04/05 09:52:21;;;;;;;3.00;2.80;;;;;;;3.87;50.99;97384.38;4969976;28;20205;-68
2023/04/05 09:54:51;;;;;;;3.10;2.90;;;;;;;4.27;50.44;97391.28;4975821;28;20201;-68
2023/04/05 09:57:19;;;;;;;4.37;3.07;;;;;;;4.59;50.18;97386.69;4922090;28;20307;-67
2023/04/05 09:59:47;;;;;;;2.97;2.77;;;;;;;4.64;49.89;97389.72;4950281;28;20219;-66
2023/04/05 10:02:16;;;;;;;3.17;2.97;;;;;;;4.73;49.50;97369.66;4972079;28;20694;-68
2023/04/05 10:04:47;;;;;;;3.30;3.10;;;;;;;4.75;49.38;97386.94;4972243;28;20197;-67
2023/04/05 10:07:15;;;;;;;2.70;2.50;;;;;;;5.10;49.83;97381.97;4967757;28;20214;-68
2023/04/05 10:09:44;;;;;;;3.13;2.83;;;;;;;4.94;50.26;97382.63;4970998;28;20426;-67
2023/04/05 10:12:25;;;;;;;4.97;3.23;;;;;;;4.67;48.27;97380.72;4918866;28;20212;-67
2023/04/05 10:14:53;;;;;;;3.23;3.03;;;;;;;4.91;48.84;97385.50;4953480;28;20209;-69
2023/04/05 10:17:25;;;;;;;3.10;2.90;;;;;;;4.95;49.16;97383.41;4971480;28;20216;-70
2023/04/05 10:19:59;;;;;;;3.67;2.90;;;;;;;5.32;47.76;97379.97;4976147;28;20857;-69
2023/04/05 10:22:30;;;;;;;4.73;2.90;;;;;;;5.57;49.25;97370.56;4966028;28;20926;-68
2023/04/05 10:25:02;;;;;;;3.83;3.53;;;;;;;5.33;49.45;97374.56;4972007;28;20594;-69
2023/04/05 10:27:31;;;;;;;3.83;3.53;;;;;;;4.93;48.95;97376.50;4919723;28;20209;-68
2023/04/05 10:30:05;;;;;;;3.53;3.23;;;;;;;4.85;48.89;97376.41;4949829;28;21256;-68
2023/04/05 10:32:46;;;;;;;4.03;3.37;;;;;;;5.22;48.84;97372.13;4961460;28;20522;-66
2023/04/05 10:35:17;;;;;;;3.50;3.20;;;;;;;5.35;49.25;97367.38;4970002;28;22293;-68
2023/04/05 10:37:54;;;;;;;3.53;3.30;;;;;;;5.34;47.25;97359.63;4969703;28;20644;-66
2023/04/05 10:40:22;;;;;;;3.63;3.37;;;;;;;5.66;47.93;97368.84;4970980;28;20637;-68
2023/04/05 10:42:50;;;;;;;3.67;2.87;;;;;;;5.55;46.81;97363.81;4919484;28;20364;-69
2023/04/05 10:45:21;;;;;;;3.83;3.00;;;;;;;5.54;47.17;97368.22;4960799;28;20410;-68
2023/04/05 10:47:55;;;;;;;3.40;3.17;;;;;;;5.42;48.55;97367.59;4972221;28;20215;-68
2023/04/05 10:50:24;;;;;;;3.57;2.87;;;;;;;5.51;48.08;97363.25;4974150;28;20224;-68
2023/04/05 10:52:52;;;;;;;2.90;2.70;;;;;;;5.82;46.84;97354.19;4971382;28;20207;-67
2023/04/05 10:55:21;;;;;;;3.33;3.03;;;;;;;5.82;46.32;97365.56;4974420;28;20574;-68
2023/04/05 10:57:49;;;;;;;3.43;3.10;;;;;;;5.65;44.84;97354.84;4926613;28;20276;-67
2023/04/05 11:00:17;;;;;;;4.33;3.93;;;;;;;6.43;47.30;97354.44;4964601;28;20240;-68
2023/04/05 11:02:47;;;;;;;3.50;3.30;;;;;;;6.48;43.77;97357.41;4968314;28;20515;-69
2023/04/05 11:05:33;;;;;;;3.37;3.00;;;;;;;6.45;44.94;97355.09;4977676;28;20197;-68
2023/04/05 11:08:04;;;;;;;3.70;3.37;;;;;;;5.69;44.21;97358.03;4975620;28;20309;-66
2023/04/05 11:10:34;;;;;;;3.07;2.87;;;;;;;5.30;45.25;97358.25;4975076;28;20228;-67
2023/04/05 11:13:07;;;;;;;3.40;3.13;;;;;;;5.28;45.03;97345.25;4899285;28;20958;-68
2023/04/05 11:15:35;;;;;;;2.70;2.50;;;;;;;5.86;46.12;97351.13;4973942;28;20204;-68
2023/04/05 11:18:08;;;;;;;3.37;3.03;;;;;;;6.11;45.39;97345.28;4966123;28;21030;-67
2023/04/05 11:20:50;;;;;;;3.27;2.97;;;;;;;6.69;46.14;97340.47;4954519;28;20342;-68
2023/04/05 11:23:19;;;;;;;2.97;2.77;;;;;;;6.32;44.45;97345.81;4975151;28;20205;-67
2023/04/05 11:25:50;;;;;;;7.07;3.13;;;;;;;5.93;45.04;97339.03;4974386;28;20226;-68
2023/04/05 11:28:25;;;;;;;3.20;2.90;;;;;;;5.89;46.18;97339.50;4921755;28;20225;-68
2023/04/05 11:30:55;;;;;;;2.90;2.70;;;;;;;5.79;43.44;97334.31;4975636;28;20835;-68
2023/04/05 11:33:41;;;;;;;3.10;2.80;;;;;;;5.92;45.63;97329.50;4956305;28;20659;-66
2023/04/05 11:36:10;;;;;;;3.60;3.03;;;;;;;6.01;44.30;97329.59;4951520;28;20205;-68